Time,TemperatureF,DewpointF,PressureIn,WindDirection,WindDirectionDegrees,WindSpeedMPH,WindSpeedGustMPH,Humidity,HourlyPrecipIn,Conditions,Clouds,dailyrainin,SolarRadiationWatts/m^2,SoftwareType,DateUTC
2013-08-21 00:02:00,63.0,32.0,-100.00,SE,142,0.0,4.0,31,0.00,,,-99.99,0.000000,,2013-08-21 06:02:00,
2013-08-21 00:12:00,63.0,32.0,-100.00,SE,142,0.0,4.0,31,0.00,,,-99.99,0.000000,,2013-08-21 06:12:00,
2013-08-21 00:22:00,63.0,32.0,-100.00,SE,142,0.0,4.0,31,0.00,,,-99.99,0.000000,,2013-08-21 06:22:00,
2013-08-21 00:52:00,58.0,30.0,-100.00,ESE,114,0.0,5.0,34,0.00,,,-99.99,0.000000,,2013-08-21 06:52:00,
2013-08-21 01:01:00,58.0,30.0,-100.00,ESE,114,0.0,5.0,34,0.00,,,-99.99,0.000000,,2013-08-21 07:01:00,
2013-08-21 01:11:00,58.0,30.0,-100.00,ESE,114,0.0,5.0,34,0.00,,,-99.99,0.000000,,2013-08-21 07:11:00,
2013-08-21 01:21:00,58.0,30.0,-100.00,ESE,114,0.0,5.0,34,0.00,,,-99.99,0.000000,,2013-08-21 07:21:00,
2013-08-21 01:53:00,58.0,31.0,-100.00,NNW,342,0.0,5.0,36,0.00,,,0.00,0.000000,,2013-08-21 07:53:00,
2013-08-21 02:03:00,58.0,31.0,-100.00,NNW,342,0.0,5.0,36,0.00,,,0.00,0.000000,,2013-08-21 08:03:00,
2013-08-21 02:12:00,58.0,31.0,-100.00,NNW,342,0.0,5.0,36,0.00,,,0.00,0.000000,,2013-08-21 08:12:00,
2013-08-21 02:22:00,58.0,31.0,-100.00,NNW,342,0.0,5.0,36,0.00,,,0.00,0.000000,,2013-08-21 08:22:00,
2013-08-21 02:52:00,54.0,30.0,-100.00,NE,37,0.0,4.0,40,0.00,,,0.00,0.000000,,2013-08-21 08:52:00,
2013-08-21 03:01:00,54.0,30.0,-100.00,NE,37,0.0,4.0,40,0.00,,,0.00,0.000000,,2013-08-21 09:01:00,
2013-08-21 03:11:00,54.0,30.0,-100.00,NE,37,0.0,4.0,40,0.00,,,0.00,0.000000,,2013-08-21 09:11:00,
2013-08-21 03:22:00,54.0,30.0,-100.00,NE,37,0.0,4.0,40,0.00,,,0.00,0.000000,,2013-08-21 09:22:00,
2013-08-21 03:53:00,51.0,30.0,-100.00,NW,319,0.0,5.0,45,0.00,,,0.00,0.000000,,2013-08-21 09:53:00,
2013-08-21 04:03:00,51.0,30.0,-100.00,NW,319,0.0,5.0,45,0.00,,,0.00,0.000000,,2013-08-21 10:03:00,
2013-08-21 04:12:00,51.0,30.0,-100.00,NW,319,0.0,5.0,45,0.00,,,0.00,0.000000,,2013-08-21 10:12:00,
2013-08-21 04:23:00,51.0,30.0,-100.00,NW,319,0.0,5.0,45,0.00,,,0.00,0.000000,,2013-08-21 10:23:00,
2013-08-21 04:52:00,50.0,33.0,-100.00,NNW,344,0.0,3.0,51,0.00,,,0.00,0.000000,,2013-08-21 10:52:00,
2013-08-21 05:03:00,50.0,33.0,-100.00,NNW,344,0.0,3.0,51,0.00,,,0.00,0.000000,,2013-08-21 11:03:00,
2013-08-21 05:11:00,50.0,33.0,-100.00,NNW,344,0.0,3.0,51,0.00,,,0.00,0.000000,,2013-08-21 11:11:00,
2013-08-21 05:22:00,50.0,33.0,-100.00,NNW,344,0.0,3.0,51,0.00,,,0.00,0.000000,,2013-08-21 11:22:00,
2013-08-21 05:52:00,47.0,32.0,-100.00,ESE,119,0.0,0.0,56,0.00,,,0.00,0.000000,,2013-08-21 11:52:00,
2013-08-21 06:01:00,47.0,32.0,-100.00,ESE,119,0.0,0.0,56,0.00,,,0.00,0.000000,,2013-08-21 12:01:00,
2013-08-21 06:12:00,47.0,32.0,-100.00,ESE,119,0.0,0.0,56,0.00,,,0.00,0.000000,,2013-08-21 12:12:00,
2013-08-21 06:22:00,47.0,32.0,-100.00,ESE,119,0.0,0.0,56,0.00,,,0.00,0.000000,,2013-08-21 12:22:00,
2013-08-21 06:52:00,46.0,32.0,-100.00,NE,48,0.0,2.0,59,0.00,,,0.00,0.000000,,2013-08-21 12:52:00,
2013-08-21 07:02:00,46.0,32.0,-100.00,NE,48,0.0,2.0,59,0.00,,,0.00,0.000000,,2013-08-21 13:02:00,
2013-08-21 07:11:00,46.0,32.0,-100.00,NE,48,0.0,2.0,59,0.00,,,0.00,0.000000,,2013-08-21 13:11:00,
2013-08-21 07:21:00,46.0,32.0,-100.00,NE,48,0.0,2.0,59,0.00,,,0.00,0.000000,,2013-08-21 13:21:00,
2013-08-21 07:52:00,43.0,32.0,-100.00,East,85,0.0,3.0,65,0.00,,,0.00,1.000000,,2013-08-21 13:52:00,
2013-08-21 08:02:00,43.0,32.0,-100.00,East,85,0.0,3.0,65,0.00,,,0.00,1.000000,,2013-08-21 14:02:00,
2013-08-21 08:11:00,43.0,32.0,-100.00,East,85,0.0,3.0,65,0.00,,,0.00,1.000000,,2013-08-21 14:11:00,
2013-08-21 08:21:00,43.0,32.0,-100.00,East,85,0.0,3.0,65,0.00,,,0.00,1.000000,,2013-08-21 14:21:00,
2013-08-21 08:52:00,44.0,33.0,-100.00,ENE,60,0.0,0.0,64,0.00,,,0.00,29.000000,,2013-08-21 14:52:00,
2013-08-21 09:01:00,44.0,33.0,-100.00,ENE,60,0.0,0.0,64,0.00,,,0.00,29.000000,,2013-08-21 15:01:00,
2013-08-21 09:11:00,44.0,33.0,-100.00,ENE,60,0.0,0.0,64,0.00,,,0.00,29.000000,,2013-08-21 15:11:00,
2013-08-21 09:22:00,44.0,33.0,-100.00,ENE,60,0.0,0.0,64,0.00,,,0.00,29.000000,,2013-08-21 15:22:00,
2013-08-21 09:54:00,52.0,34.0,-100.00,WNW,302,0.0,0.0,51,0.00,,,-99.99,179.000000,,2013-08-21 15:54:00,
2013-08-21 10:04:00,52.0,34.0,-100.00,WNW,302,0.0,0.0,51,0.00,,,-99.99,179.000000,,2013-08-21 16:04:00,
2013-08-21 10:13:00,52.0,34.0,-100.00,WNW,302,0.0,0.0,51,0.00,,,-99.99,179.000000,,2013-08-21 16:13:00,
2013-08-21 10:24:00,52.0,34.0,-100.00,WNW,302,0.0,0.0,51,0.00,,,-99.99,179.000000,,2013-08-21 16:24:00,
2013-08-21 10:53:00,58.0,34.0,-100.00,WNW,299,3.0,0.0,40,0.00,,,0.00,406.000000,,2013-08-21 16:53:00,
2013-08-21 11:03:00,58.0,34.0,-100.00,WNW,299,3.0,0.0,40,0.00,,,0.00,406.000000,,2013-08-21 17:03:00,
2013-08-21 11:13:00,58.0,34.0,-100.00,WNW,299,3.0,0.0,40,0.00,,,0.00,406.000000,,2013-08-21 17:13:00,
2013-08-21 11:23:00,58.0,34.0,-100.00,WNW,299,3.0,0.0,40,0.00,,,0.00,406.000000,,2013-08-21 17:23:00,
2013-08-21 11:53:00,67.0,35.0,-100.00,WNW,294,4.0,6.0,31,0.00,,,0.00,581.000000,,2013-08-21 17:53:00,
2013-08-21 12:02:00,67.0,35.0,-100.00,WNW,294,4.0,6.0,31,0.00,,,0.00,581.000000,,2013-08-21 18:02:00,
2013-08-21 12:12:00,67.0,35.0,-100.00,WNW,294,4.0,6.0,31,0.00,,,0.00,581.000000,,2013-08-21 18:12:00,
2013-08-21 12:22:00,67.0,35.0,-100.00,WNW,294,4.0,6.0,31,0.00,,,0.00,581.000000,,2013-08-21 18:22:00,
2013-08-21 12:52:00,75.0,35.0,-100.00,WNW,289,4.0,7.0,23,0.00,,,0.00,725.000000,,2013-08-21 18:52:00,
2013-08-21 13:01:00,75.0,35.0,-100.00,WNW,289,4.0,7.0,23,0.00,,,0.00,725.000000,,2013-08-21 19:01:00,
2013-08-21 13:11:00,75.0,35.0,-100.00,WNW,289,4.0,7.0,23,0.00,,,0.00,725.000000,,2013-08-21 19:11:00,
2013-08-21 13:22:00,75.0,35.0,-100.00,WNW,289,4.0,7.0,23,0.00,,,0.00,725.000000,,2013-08-21 19:22:00,
2013-08-21 13:52:00,80.0,34.0,-100.00,West,280,5.0,7.0,19,0.00,,,0.00,819.000000,,2013-08-21 19:52:00,
2013-08-21 14:02:00,80.0,34.0,-100.00,West,280,5.0,7.0,19,0.00,,,0.00,819.000000,,2013-08-21 20:02:00,
2013-08-21 14:11:00,80.0,34.0,-100.00,West,280,5.0,7.0,19,0.00,,,0.00,819.000000,,2013-08-21 20:11:00,
2013-08-21 14:22:00,80.0,34.0,-100.00,West,280,5.0,7.0,19,0.00,,,0.00,819.000000,,2013-08-21 20:22:00,
2013-08-21 14:52:00,84.0,34.0,-100.00,WNW,294,7.0,10.0,17,0.00,,,0.00,830.000000,,2013-08-21 20:52:00,
2013-08-21 15:02:00,84.0,34.0,-100.00,WNW,294,7.0,10.0,17,0.00,,,0.00,830.000000,,2013-08-21 21:02:00,
2013-08-21 15:12:00,84.0,34.0,-100.00,WNW,294,7.0,10.0,17,0.00,,,0.00,830.000000,,2013-08-21 21:12:00,
2013-08-21 15:21:00,84.0,34.0,-100.00,WNW,294,7.0,10.0,17,0.00,,,0.00,830.000000,,2013-08-21 21:21:00,
2013-08-21 15:54:00,83.0,29.0,-100.00,West,279,7.0,12.0,14,0.00,,,0.00,731.000000,,2013-08-21 21:54:00,
2013-08-21 16:04:00,83.0,29.0,-100.00,West,279,7.0,12.0,14,0.00,,,0.00,731.000000,,2013-08-21 22:04:00,
2013-08-21 16:14:00,83.0,29.0,-100.00,West,279,7.0,12.0,14,0.00,,,0.00,731.000000,,2013-08-21 22:14:00,
2013-08-21 16:24:00,83.0,29.0,-100.00,West,279,7.0,12.0,14,0.00,,,0.00,731.000000,,2013-08-21 22:24:00,
2013-08-21 16:53:00,86.0,29.0,-100.00,West,279,8.0,14.0,13,0.00,,,0.00,386.000000,,2013-08-21 22:53:00,
2013-08-21 17:03:00,86.0,29.0,-100.00,West,279,8.0,14.0,13,0.00,,,0.00,386.000000,,2013-08-21 23:03:00,
2013-08-21 17:12:00,86.0,29.0,-100.00,West,279,8.0,14.0,13,0.00,,,0.00,386.000000,,2013-08-21 23:12:00,
2013-08-21 17:22:00,86.0,29.0,-100.00,West,279,8.0,14.0,13,0.00,,,0.00,386.000000,,2013-08-21 23:22:00,
2013-08-21 17:53:00,84.0,31.0,-100.00,WNW,286,7.0,15.0,15,0.00,,,0.00,552.000000,,2013-08-21 23:53:00,
2013-08-21 18:02:00,84.0,31.0,-100.00,WNW,286,7.0,15.0,15,0.00,,,0.00,552.000000,,2013-08-22 00:02:00,
2013-08-21 18:12:00,84.0,31.0,-100.00,WNW,286,7.0,15.0,15,0.00,,,0.00,552.000000,,2013-08-22 00:12:00,
2013-08-21 18:21:00,84.0,31.0,-100.00,WNW,286,7.0,15.0,15,0.00,,,0.00,552.000000,,2013-08-22 00:21:00,
2013-08-21 18:52:00,80.0,30.0,-100.00,NNW,343,1.0,15.0,16,0.00,,,0.00,231.000000,,2013-08-22 00:52:00,
2013-08-21 19:02:00,80.0,30.0,-100.00,NNW,343,1.0,15.0,16,0.00,,,0.00,231.000000,,2013-08-22 01:02:00,
2013-08-21 19:11:00,80.0,30.0,-100.00,NNW,343,1.0,15.0,16,0.00,,,0.00,231.000000,,2013-08-22 01:11:00,
2013-08-21 19:22:00,80.0,30.0,-100.00,NNW,343,1.0,15.0,16,0.00,,,0.00,231.000000,,2013-08-22 01:22:00,
2013-08-21 19:52:00,78.0,31.0,-100.00,NE,50,0.0,14.0,18,0.00,,,0.00,95.000000,,2013-08-22 01:52:00,
2013-08-21 20:03:00,78.0,31.0,-100.00,NE,50,0.0,14.0,18,0.00,,,0.00,95.000000,,2013-08-22 02:03:00,
2013-08-21 20:12:00,78.0,31.0,-100.00,NE,50,0.0,14.0,18,0.00,,,0.00,95.000000,,2013-08-22 02:12:00,
2013-08-21 20:22:00,78.0,31.0,-100.00,NE,50,0.0,14.0,18,0.00,,,0.00,95.000000,,2013-08-22 02:22:00,
2013-08-21 21:12:00,74.0,30.0,-100.00,ENE,67,0.0,12.0,20,0.00,,,0.00,40.000000,,2013-08-22 03:12:00,
2013-08-21 21:22:00,74.0,30.0,-100.00,ENE,67,0.0,12.0,20,0.00,,,0.00,40.000000,,2013-08-22 03:22:00,
2013-08-21 21:54:00,69.0,33.0,-100.00,ESE,118,2.0,5.0,26,0.00,,,0.00,6.000000,,2013-08-22 03:54:00,
2013-08-21 22:04:00,69.0,33.0,-100.00,ESE,118,2.0,5.0,26,0.00,,,0.00,6.000000,,2013-08-22 04:04:00,
2013-08-21 22:14:00,69.0,33.0,-100.00,ESE,118,2.0,5.0,26,0.00,,,0.00,6.000000,,2013-08-22 04:14:00,
2013-08-21 22:23:00,69.0,33.0,-100.00,ESE,118,2.0,5.0,26,0.00,,,0.00,6.000000,,2013-08-22 04:23:00,
2013-08-21 22:54:00,64.0,31.0,-100.00,SE,133,1.0,5.0,29,0.00,,,0.00,0.000000,,2013-08-22 04:54:00,
2013-08-21 23:03:00,64.0,31.0,-100.00,SE,133,1.0,5.0,29,0.00,,,0.00,0.000000,,2013-08-22 05:03:00,
2013-08-21 23:12:00,64.0,31.0,-100.00,SE,133,1.0,5.0,29,0.00,,,0.00,0.000000,,2013-08-22 05:12:00,
2013-08-21 23:22:00,64.0,31.0,-100.00,SE,133,1.0,5.0,29,0.00,,,0.00,0.000000,,2013-08-22 05:22:00,
2013-08-21 23:52:00,60.0,30.0,-100.00,ESE,111,1.0,5.0,32,0.00,,,0.00,0.000000,,2013-08-22 05:52:00,